createdAt,value
2018-12-01T00:00:02.601Z,61.27
2018-12-01T00:02:34.184Z,51.87
2018-12-01T00:05:05.903Z,41.73
2018-12-01T00:07:37.418Z,48.60
2018-12-01T00:10:09.085Z,49.90
2018-12-01T00:12:40.312Z,50.23
2018-12-01T00:15:15.988Z,51.37
2018-12-01T00:17:48.148Z,56.13
2018-12-01T00:20:23.147Z,43.40
2018-12-01T00:22:54.436Z,43.93
2018-12-01T00:25:26.288Z,46.70
2018-12-01T00:27:57.838Z,47.13
2018-12-01T00:30:28.991Z,43.13
2018-12-01T00:33:00.536Z,49.07
2018-12-01T00:35:31.811Z,52.67
2018-12-01T00:38:03.670Z,54.70
2018-12-01T00:40:35.400Z,58.27
2018-12-01T00:43:06.646Z,49.60
2018-12-01T00:45:38.277Z,55.27
2018-12-01T00:48:10.137Z,43.10
2018-12-01T00:50:41.479Z,54.00
2018-12-01T00:53:13.394Z,52.13
2018-12-01T00:55:44.820Z,50.57
2018-12-01T00:58:16.093Z,50.47
2018-12-01T01:00:47.428Z,64.40
2018-12-01T01:03:19.419Z,52.07
2018-12-01T01:05:50.795Z,54.30
2018-12-01T01:08:22.201Z,46.27
2018-12-01T01:10:53.526Z,48.37
2018-12-01T01:13:24.958Z,51.50
2018-12-01T01:15:56.309Z,41.67
2018-12-01T01:18:27.855Z,48.57
2018-12-01T01:20:59.117Z,48.13
2018-12-01T01:23:30.816Z,51.50
2018-12-01T01:26:02.321Z,51.80
2018-12-01T01:28:33.570Z,48.47
2018-12-01T01:31:04.968Z,46.97
2018-12-01T01:33:36.471Z,47.77
2018-12-01T01:36:07.763Z,56.03
2018-12-01T01:38:39.354Z,50.87
2018-12-01T01:41:10.658Z,53.87
2018-12-01T01:43:42.101Z,53.97
2018-12-01T01:46:13.550Z,48.50
2018-12-01T01:48:44.846Z,53.30
2018-12-01T01:51:16.289Z,52.73
2018-12-01T01:53:48.065Z,63.10
2018-12-01T01:56:19.631Z,50.50
2018-12-01T01:58:51.503Z,46.30
2018-12-01T02:01:22.933Z,41.93
2018-12-01T02:03:54.256Z,39.10
2018-12-01T02:06:25.539Z,50.03
2018-12-01T02:08:57.116Z,50.03
2018-12-01T02:11:28.736Z,49.40
2018-12-01T02:13:59.977Z,59.50
2018-12-01T02:16:31.411Z,49.10
2018-12-01T02:19:02.754Z,44.03
2018-12-01T02:21:34.238Z,43.73
2018-12-01T02:24:06.065Z,47.23
2018-12-01T02:26:37.245Z,49.17
2018-12-01T02:29:08.883Z,43.17
2018-12-01T02:31:40.258Z,39.77
2018-12-01T02:34:11.450Z,42.40
2018-12-01T02:36:43.015Z,48.20
2018-12-01T02:39:14.344Z,37.93
2018-12-01T02:41:45.812Z,35.37
2018-12-01T02:45:36.991Z,37.30
2018-12-01T02:48:09.002Z,43.03
2018-12-01T02:50:40.331Z,46.40
2018-12-01T02:53:11.806Z,44.70
2018-12-01T02:55:43.189Z,43.00
2018-12-01T02:58:14.594Z,44.17
2018-12-01T03:00:45.954Z,44.47
2018-12-01T03:03:17.295Z,36.70
2018-12-01T03:05:48.585Z,36.57
2018-12-01T03:08:19.954Z,41.00
2018-12-01T03:10:51.996Z,39.10
2018-12-01T03:13:23.468Z,43.97
2018-12-01T03:15:55.000Z,39.77
2018-12-01T03:18:26.376Z,44.37
2018-12-01T03:20:57.952Z,41.57
2018-12-01T03:23:29.308Z,40.30
2018-12-01T03:26:00.714Z,41.23
2018-12-01T03:28:32.339Z,45.23
2018-12-01T03:31:03.715Z,38.20
2018-12-01T03:33:35.085Z,41.33
2018-12-01T03:36:06.555Z,45.37
2018-12-01T03:38:37.601Z,38.67
2018-12-01T03:41:09.135Z,39.87
2018-12-01T03:43:40.266Z,38.50
2018-12-01T03:46:11.766Z,38.77
2018-12-01T03:48:43.135Z,41.43
2018-12-01T03:51:14.642Z,39.27
2018-12-01T03:53:45.848Z,42.20
2018-12-01T03:56:17.221Z,38.37
2018-12-01T03:58:48.953Z,42.53
2018-12-01T04:01:20.339Z,41.60
2018-12-01T04:03:52.346Z,45.23
2018-12-01T04:06:23.514Z,44.50
2018-12-01T04:08:54.941Z,41.07
2018-12-01T04:11:26.008Z,40.53
2018-12-01T04:13:57.327Z,41.73
2018-12-01T04:16:28.671Z,39.37
2018-12-01T04:19:00.022Z,41.73
2018-12-01T04:21:31.268Z,47.07
2018-12-01T04:24:02.642Z,47.60
2018-12-01T04:26:34.051Z,42.83
2018-12-01T04:29:05.494Z,42.40
2018-12-01T04:31:37.088Z,43.77
2018-12-01T04:34:08.417Z,39.80
2018-12-01T04:36:39.931Z,39.97
2018-12-01T04:39:12.171Z,44.17
2018-12-01T04:41:43.039Z,44.43
2018-12-01T04:44:14.349Z,43.53
2018-12-01T04:46:45.563Z,44.10
2018-12-01T04:49:16.986Z,42.03
2018-12-01T04:51:48.275Z,45.10
2018-12-01T04:54:19.642Z,42.23
2018-12-01T04:56:50.666Z,45.60
2018-12-01T04:59:21.952Z,43.77
2018-12-01T05:01:53.233Z,44.47
2018-12-01T05:04:24.704Z,41.17
2018-12-01T05:06:56.864Z,42.37
2018-12-01T05:09:29.024Z,45.63
2018-12-01T05:12:00.345Z,44.80
2018-12-01T05:14:31.799Z,40.70
2018-12-01T05:17:03.146Z,43.10
2018-12-01T05:19:34.639Z,42.13
2018-12-01T05:22:05.982Z,40.00
2018-12-01T05:24:37.169Z,39.40
2018-12-01T05:27:08.807Z,43.37
2018-12-01T05:29:40.435Z,46.93
2018-12-01T05:32:11.673Z,40.70
2018-12-01T05:34:42.990Z,42.47
2018-12-01T05:37:14.276Z,36.60
2018-12-01T05:39:45.552Z,45.10
2018-12-01T05:42:16.843Z,42.60
2018-12-01T05:44:48.091Z,40.87
2018-12-01T05:47:19.524Z,42.80
2018-12-01T05:49:50.907Z,43.37
2018-12-01T05:52:22.420Z,37.50
2018-12-01T05:54:53.495Z,37.93
2018-12-01T05:57:24.746Z,43.23
2018-12-01T05:59:56.310Z,42.60
2018-12-01T06:02:27.719Z,42.43
2018-12-01T06:04:58.994Z,42.33
2018-12-01T06:07:30.284Z,44.00
2018-12-01T06:10:01.871Z,40.57
2018-12-01T06:12:33.228Z,38.93
2018-12-01T06:15:04.869Z,37.27
2018-12-01T06:17:36.341Z,46.83
2018-12-01T06:20:26.855Z,41.93
2018-12-01T06:22:58.447Z,42.20
2018-12-01T06:25:29.847Z,42.40
2018-12-01T06:28:01.587Z,41.20
2018-12-01T06:30:32.828Z,46.50
2018-12-01T06:33:03.874Z,41.70
2018-12-01T06:35:36.232Z,40.87
2018-12-01T06:38:07.899Z,42.07
2018-12-01T06:40:39.439Z,41.93
2018-12-01T06:43:10.669Z,45.57
2018-12-01T06:45:42.042Z,39.30
2018-12-01T06:48:13.427Z,42.67
2018-12-01T06:50:45.471Z,37.93
2018-12-01T06:53:16.920Z,39.60
2018-12-01T06:55:48.063Z,42.67
2018-12-01T06:58:19.216Z,56.47
2018-12-01T07:00:50.658Z,57.27
2018-12-01T07:03:22.011Z,45.40
2018-12-01T07:05:53.234Z,47.23
2018-12-01T07:08:24.416Z,41.97
2018-12-01T07:10:55.761Z,39.93
2018-12-01T07:13:27.398Z,38.47
2018-12-01T07:15:58.761Z,41.67
2018-12-01T07:18:46.220Z,39.00
2018-12-01T07:21:17.576Z,42.30
2018-12-01T07:23:48.673Z,41.67
2018-12-01T07:26:20.423Z,43.23
2018-12-01T07:28:52.246Z,41.53
2018-12-01T07:31:23.576Z,42.70
2018-12-01T07:33:55.243Z,41.70
2018-12-01T07:36:27.090Z,35.37
2018-12-01T07:38:58.831Z,39.03
2018-12-01T07:41:30.984Z,40.27
2018-12-01T07:44:02.319Z,37.23
2018-12-01T07:46:33.904Z,40.10
2018-12-01T07:49:05.495Z,42.27
2018-12-01T07:51:37.435Z,40.20
2018-12-01T07:54:09.392Z,41.07
2018-12-01T07:56:40.813Z,44.93
2018-12-01T07:59:12.414Z,40.87
2018-12-01T08:01:43.753Z,36.20
2018-12-01T08:04:15.344Z,40.03
2018-12-01T08:06:46.891Z,39.73
2018-12-01T08:09:18.346Z,41.90
2018-12-01T08:11:49.629Z,39.93
2018-12-01T08:14:21.359Z,41.47
2018-12-01T08:16:52.710Z,52.23
2018-12-01T08:19:23.991Z,37.37
2018-12-01T08:21:55.309Z,38.70
2018-12-01T08:24:26.615Z,40.07
2018-12-01T08:26:58.012Z,41.20
2018-12-01T08:29:29.080Z,45.57
2018-12-01T08:32:00.510Z,43.10
2018-12-01T08:34:31.833Z,43.37
2018-12-01T08:37:03.330Z,40.00
2018-12-01T08:39:34.932Z,39.73
2018-12-01T08:42:06.143Z,40.50
2018-12-01T08:44:37.512Z,78.60
2018-12-01T08:47:09.149Z,42.30
2018-12-01T08:49:40.641Z,42.73
2018-12-01T08:52:11.984Z,45.77
2018-12-01T08:54:43.328Z,44.03
2018-12-01T08:57:14.731Z,44.53
2018-12-01T08:59:46.356Z,43.23
2018-12-01T09:02:17.787Z,45.07
2018-12-01T09:04:49.134Z,42.30
2018-12-01T09:07:20.449Z,44.27
2018-12-01T09:09:51.838Z,40.90
2018-12-01T09:12:23.244Z,68.87
2018-12-01T09:14:54.633Z,52.30
2018-12-01T09:17:25.983Z,47.40
2018-12-01T09:19:57.491Z,43.60
2018-12-01T09:22:29.011Z,42.80
2018-12-01T09:25:00.399Z,40.33
2018-12-01T09:27:31.818Z,47.63
2018-12-01T09:30:03.526Z,45.03
2018-12-01T09:32:34.828Z,43.80
2018-12-01T09:35:06.322Z,47.33
2018-12-01T09:37:37.776Z,40.17
2018-12-01T09:40:11.758Z,46.63
2018-12-01T09:42:42.968Z,45.60
2018-12-01T09:45:20.244Z,49.30
2018-12-01T09:47:52.650Z,45.33
2018-12-01T09:50:23.993Z,47.53
2018-12-01T09:52:59.781Z,46.27
2018-12-01T09:55:32.238Z,52.20
2018-12-01T09:58:03.952Z,60.80
2018-12-01T10:00:35.503Z,45.57
2018-12-01T10:03:08.775Z,50.97
2018-12-01T10:05:40.326Z,48.47
2018-12-01T10:08:11.855Z,62.50
2018-12-01T10:10:43.474Z,47.20
2018-12-01T10:13:14.686Z,48.60
2018-12-01T10:15:46.107Z,47.83
2018-12-01T10:18:17.535Z,48.53
2018-12-01T10:20:49.246Z,45.43
2018-12-01T10:23:21.088Z,45.87
2018-12-01T10:25:52.684Z,45.00
2018-12-01T10:28:24.109Z,45.20
2018-12-01T10:30:55.464Z,51.10
2018-12-01T10:33:26.945Z,50.00
2018-12-01T10:35:58.827Z,45.43
2018-12-01T10:38:30.148Z,52.17
2018-12-01T10:41:02.210Z,53.33
2018-12-01T10:43:33.379Z,50.07
2018-12-01T10:46:04.790Z,51.67
2018-12-01T10:48:36.430Z,52.27
2018-12-01T10:51:07.943Z,71.33
2018-12-01T10:53:39.617Z,56.00
2018-12-01T10:56:11.330Z,53.00
2018-12-01T10:58:42.819Z,48.73
2018-12-01T11:01:19.053Z,56.03
2018-12-01T11:03:50.651Z,47.70
2018-12-01T11:06:22.644Z,57.03
2018-12-01T11:08:53.969Z,46.27
2018-12-01T11:11:25.045Z,49.57
2018-12-01T11:13:56.349Z,50.13
2018-12-01T11:16:27.767Z,48.93
2018-12-01T11:18:59.496Z,52.33
2018-12-01T11:21:31.401Z,56.57
2018-12-01T11:24:03.024Z,54.03
2018-12-01T11:26:34.664Z,58.73
2018-12-01T11:29:06.218Z,57.47
2018-12-01T11:31:38.158Z,47.40
2018-12-01T11:34:10.051Z,53.80
2018-12-01T11:36:41.359Z,51.47
2018-12-01T11:39:12.875Z,55.83
2018-12-01T11:41:44.303Z,55.67
2018-12-01T11:44:16.032Z,52.47
2018-12-01T11:46:47.614Z,106.60
2018-12-01T11:49:19.150Z,66.20
2018-12-01T11:51:50.786Z,58.07
2018-12-01T11:54:22.477Z,55.50
2018-12-01T11:56:53.879Z,55.77
2018-12-01T11:59:25.123Z,56.03
2018-12-01T12:02:00.464Z,54.23
2018-12-01T12:04:28.459Z,56.33
2018-12-01T12:07:00.050Z,51.47
2018-12-01T12:09:31.612Z,47.37
2018-12-01T12:12:04.493Z,51.30
2018-12-01T12:14:35.207Z,54.23
2018-12-01T12:17:07.089Z,56.43
2018-12-01T12:19:39.587Z,55.37
2018-12-01T12:22:10.422Z,57.63
2018-12-01T12:24:41.848Z,51.20
2018-12-01T12:27:13.267Z,53.77
2018-12-01T12:29:44.808Z,55.90
2018-12-01T12:32:16.350Z,59.57
2018-12-01T12:34:47.713Z,58.90
2018-12-01T12:37:19.367Z,54.60
2018-12-01T12:39:50.938Z,57.00
2018-12-01T12:42:23.282Z,61.33
2018-12-01T12:44:54.535Z,54.20
2018-12-01T12:47:25.902Z,55.37
2018-12-01T12:49:57.363Z,57.30
2018-12-01T12:52:28.985Z,63.53
2018-12-01T12:55:00.709Z,56.13
2018-12-01T12:57:32.022Z,62.30
2018-12-01T13:00:03.451Z,57.10
2018-12-01T13:02:34.955Z,61.27
2018-12-01T13:05:09.169Z,58.47
2018-12-01T13:07:40.594Z,57.53
2018-12-01T13:10:18.031Z,66.03
2018-12-01T13:12:49.612Z,67.57
2018-12-01T13:15:21.132Z,62.63
2018-12-01T13:17:52.608Z,61.60
2018-12-01T13:20:26.203Z,61.90
2018-12-01T13:23:00.949Z,58.73
2018-12-01T13:25:32.514Z,60.10
2018-12-01T13:28:23.779Z,60.10
2018-12-01T13:31:01.083Z,63.50
2018-12-01T13:33:33.085Z,62.17
2018-12-01T13:36:04.890Z,62.90
2018-12-01T13:38:37.393Z,64.53
2018-12-01T13:41:10.302Z,57.80
2018-12-01T13:43:42.881Z,66.90
2018-12-01T13:46:14.723Z,64.10
2018-12-01T13:48:46.366Z,68.90
2018-12-01T13:51:17.764Z,65.47
2018-12-01T13:53:49.404Z,66.63
2018-12-01T13:56:21.018Z,63.17
2018-12-01T13:58:51.788Z,68.10
2018-12-01T14:01:22.707Z,65.90
2018-12-01T14:03:53.663Z,65.57
2018-12-01T14:06:24.704Z,65.77
2018-12-01T14:08:56.023Z,69.17
2018-12-01T14:11:27.222Z,70.23
2018-12-01T14:13:58.204Z,69.40
2018-12-01T14:16:29.177Z,67.67
2018-12-01T14:19:04.008Z,66.47
2018-12-01T14:21:35.561Z,66.57
2018-12-01T14:24:06.601Z,64.77
2018-12-01T14:26:37.630Z,67.07
2018-12-01T14:29:09.315Z,66.80
2018-12-01T14:31:40.453Z,70.07
2018-12-01T14:34:12.155Z,69.33
2018-12-01T14:36:43.744Z,70.47
2018-12-01T14:39:14.781Z,90.87
2018-12-01T14:41:45.741Z,68.83
2018-12-01T14:44:16.562Z,77.53
2018-12-01T14:46:47.388Z,74.80
2018-12-01T14:49:18.345Z,96.47
2018-12-01T14:51:49.276Z,84.70
2018-12-01T14:54:20.096Z,70.47
2018-12-01T14:56:51.144Z,73.33
2018-12-01T14:59:22.062Z,75.90
2018-12-01T15:01:52.987Z,94.20
2018-12-01T15:04:23.957Z,72.37
2018-12-01T15:06:54.843Z,75.40
2018-12-01T15:09:25.886Z,77.10
2018-12-01T15:11:56.894Z,73.97
2018-12-01T15:14:27.814Z,79.87
2018-12-01T15:16:59.517Z,81.13
2018-12-01T15:19:31.212Z,80.70
2018-12-01T15:22:02.826Z,76.87
2018-12-01T15:24:34.386Z,76.90
2018-12-01T15:27:06.343Z,76.27
2018-12-01T15:29:37.768Z,78.27
2018-12-01T15:32:09.633Z,75.73
2018-12-01T15:34:41.317Z,78.30
2018-12-01T15:37:12.600Z,78.13
2018-12-01T15:39:44.207Z,79.47
2018-12-01T15:42:15.530Z,74.43
2018-12-01T15:44:46.805Z,102.37
2018-12-01T15:47:18.338Z,97.20
2018-12-01T15:49:50.259Z,89.33
2018-12-01T15:52:21.543Z,73.23
2018-12-01T15:54:53.371Z,69.97
2018-12-01T15:57:25.165Z,75.37
2018-12-01T15:59:56.570Z,80.60
2018-12-01T16:02:28.436Z,74.07
2018-12-01T16:05:00.212Z,76.03
2018-12-01T16:07:31.680Z,78.37
2018-12-01T16:10:03.220Z,83.47
2018-12-01T16:12:34.553Z,87.27
2018-12-01T16:15:11.086Z,97.67
2018-12-01T16:17:42.906Z,91.70
2018-12-01T16:20:15.383Z,103.37
2018-12-01T16:22:46.855Z,87.47
2018-12-01T16:25:19.658Z,89.90
2018-12-01T16:27:50.986Z,87.30
2018-12-01T16:30:35.357Z,88.80
2018-12-01T16:33:12.872Z,80.47
2018-12-01T16:35:44.334Z,94.03
2018-12-01T16:38:19.012Z,103.00
2018-12-01T16:40:57.189Z,99.77
2018-12-01T16:43:30.234Z,90.73
2018-12-01T16:46:01.924Z,86.10
2018-12-01T16:48:33.352Z,81.47
2018-12-01T16:51:04.668Z,83.30
2018-12-01T16:53:36.327Z,86.07
2018-12-01T16:56:08.159Z,82.50
2018-12-01T16:58:40.067Z,94.63
2018-12-01T17:01:11.492Z,94.40
2018-12-01T17:03:42.926Z,93.10
2018-12-01T17:06:18.230Z,101.30
2018-12-01T17:08:50.550Z,106.77
2018-12-01T17:11:22.174Z,93.87
2018-12-01T17:13:53.694Z,94.13
2018-12-01T17:16:25.253Z,88.87
2018-12-01T17:18:56.840Z,91.00
2018-12-01T17:21:28.477Z,99.00
2018-12-01T17:24:00.159Z,97.47
2018-12-01T17:26:31.493Z,99.33
2018-12-01T17:29:02.776Z,94.53
2018-12-01T17:31:34.580Z,93.57
2018-12-01T17:34:06.279Z,86.67
2018-12-01T17:36:37.937Z,97.83
2018-12-01T17:39:11.511Z,96.47
2018-12-01T17:41:43.376Z,92.03
2018-12-01T17:44:15.520Z,100.70
2018-12-01T17:46:47.742Z,99.13
2018-12-01T17:49:20.189Z,104.17
2018-12-01T17:51:52.299Z,135.47
2018-12-01T17:54:24.979Z,103.50
2018-12-01T17:56:56.897Z,184.67
2018-12-01T17:59:29.022Z,106.60
2018-12-01T18:02:00.952Z,97.53
2018-12-01T18:04:33.277Z,101.77
2018-12-01T18:07:05.683Z,106.10
2018-12-01T18:09:37.553Z,98.07
2018-12-01T18:12:09.843Z,109.17
2018-12-01T18:14:42.485Z,99.00
2018-12-01T18:17:14.345Z,100.63
2018-12-01T18:19:46.277Z,108.13
2018-12-01T18:22:18.943Z,102.60
2018-12-01T18:24:50.787Z,111.47
2018-12-01T18:27:23.539Z,108.50
2018-12-01T18:29:55.890Z,99.40
2018-12-01T18:32:27.543Z,101.90
2018-12-01T18:34:59.181Z,103.07
2018-12-01T18:37:30.959Z,110.90
2018-12-01T18:40:02.610Z,109.07
2018-12-01T18:42:34.851Z,104.73
2018-12-01T18:45:07.294Z,115.60
2018-12-01T18:47:38.994Z,114.30
2018-12-01T18:50:17.891Z,118.03
2018-12-01T18:53:00.191Z,121.80
2018-12-01T18:55:33.557Z,179.63
2018-12-01T18:58:05.504Z,136.13
2018-12-01T19:00:49.356Z,124.90
2018-12-01T19:03:22.672Z,122.20
2018-12-01T19:05:54.280Z,105.20
2018-12-01T19:08:26.212Z,126.83
2018-12-01T19:10:58.264Z,126.53
2018-12-01T19:13:29.769Z,134.20
2018-12-01T19:16:01.167Z,130.63
2018-12-01T19:18:32.805Z,120.57
2018-12-01T19:21:04.701Z,127.23
2018-12-01T19:23:37.050Z,123.03
2018-12-01T19:26:09.333Z,124.43
2018-12-01T19:28:41.170Z,124.50
2018-12-01T19:31:12.656Z,131.50
2018-12-01T19:33:44.236Z,130.83
2018-12-01T19:36:15.711Z,136.23
2018-12-01T19:38:47.276Z,137.13
2018-12-01T19:41:19.083Z,196.07
2018-12-01T19:43:50.915Z,145.97
2018-12-01T19:46:22.750Z,155.40
2018-12-01T19:48:54.515Z,144.43
2018-12-01T19:51:26.084Z,129.67
2018-12-01T19:53:57.574Z,148.20
2018-12-01T19:56:29.067Z,128.00
2018-12-01T19:59:00.586Z,131.77
2018-12-01T20:01:32.295Z,148.43
2018-12-01T20:04:03.689Z,143.60
2018-12-01T20:06:35.751Z,130.37
2018-12-01T20:09:09.110Z,154.67
2018-12-01T20:11:40.535Z,195.30
2018-12-01T20:14:15.239Z,162.93
2018-12-01T20:16:50.572Z,165.73
2018-12-01T20:19:22.137Z,147.77
2018-12-01T20:21:53.579Z,139.10
2018-12-01T20:24:25.184Z,147.83
2018-12-01T20:26:57.152Z,145.63
2018-12-01T20:29:28.702Z,150.73
2018-12-01T20:32:00.124Z,146.20
2018-12-01T20:34:31.616Z,159.63
2018-12-01T20:37:08.264Z,152.00
2018-12-01T20:39:43.587Z,136.97
2018-12-01T20:42:15.367Z,136.30
2018-12-01T20:44:47.040Z,141.27
2018-12-01T20:47:18.880Z,143.53
2018-12-01T20:49:50.088Z,129.90
2018-12-01T20:52:21.581Z,134.60
2018-12-01T20:54:53.287Z,137.40
2018-12-01T20:57:29.772Z,145.63
2018-12-01T21:00:01.564Z,137.03
2018-12-01T21:02:33.746Z,137.40
2018-12-01T21:05:06.704Z,182.93
2018-12-01T21:07:38.640Z,199.87
2018-12-01T21:10:15.922Z,145.37
2018-12-01T21:12:47.443Z,141.07
2018-12-01T21:15:19.366Z,136.57
2018-12-01T21:17:50.998Z,132.23
2018-12-01T21:20:22.581Z,129.00
2018-12-01T21:22:54.569Z,142.90
2018-12-01T21:25:29.198Z,138.20
2018-12-01T21:28:02.772Z,141.07
2018-12-01T21:30:34.007Z,122.47
2018-12-01T21:33:15.797Z,113.77
2018-12-01T21:35:47.186Z,116.60
2018-12-01T21:38:18.701Z,124.53
2018-12-01T21:40:50.408Z,118.67
2018-12-01T21:43:21.778Z,111.37
2018-12-01T21:45:52.978Z,137.13
2018-12-01T21:48:24.445Z,127.77
2018-12-01T21:50:55.928Z,132.47
2018-12-01T21:53:27.930Z,126.83
2018-12-01T21:55:59.999Z,119.47
2018-12-01T21:58:31.674Z,128.97
2018-12-01T22:01:03.850Z,114.73
2018-12-01T22:03:35.399Z,126.43
2018-12-01T22:06:08.315Z,134.67
2018-12-01T22:08:40.198Z,120.60
2018-12-01T22:11:11.901Z,119.13
2018-12-01T22:13:43.259Z,118.37
2018-12-01T22:16:14.845Z,120.63
2018-12-01T22:18:46.145Z,121.40
2018-12-01T22:21:18.191Z,116.73
2018-12-01T22:23:49.398Z,136.33
2018-12-01T22:26:20.748Z,124.20
2018-12-01T22:28:51.999Z,124.07
2018-12-01T22:31:23.322Z,132.50
2018-12-01T22:33:54.674Z,123.60
2018-12-01T22:36:26.312Z,121.73
2018-12-01T22:38:57.776Z,121.80
2018-12-01T22:41:29.006Z,120.53
2018-12-01T22:44:00.716Z,132.67
2018-12-01T22:46:32.190Z,131.90
2018-12-01T22:49:04.227Z,120.43
2018-12-01T22:51:35.611Z,128.77
2018-12-01T22:54:07.487Z,130.70
2018-12-01T22:56:39.009Z,119.97
2018-12-01T22:59:10.622Z,127.40
2018-12-01T23:01:42.407Z,120.77
2018-12-01T23:04:14.048Z,127.90
2018-12-01T23:06:45.600Z,127.00
2018-12-01T23:09:17.637Z,125.30
2018-12-01T23:11:49.483Z,116.00
2018-12-01T23:14:20.951Z,120.90
2018-12-01T23:16:52.760Z,129.90
2018-12-01T23:19:24.386Z,128.40
2018-12-01T23:21:55.871Z,126.03
2018-12-01T23:24:27.894Z,126.93
2018-12-01T23:26:59.242Z,120.43
2018-12-01T23:29:30.682Z,132.60
2018-12-01T23:32:02.278Z,131.23
2018-12-01T23:34:33.691Z,127.83
2018-12-01T23:37:05.233Z,116.97
2018-12-01T23:39:36.883Z,117.97
2018-12-01T23:42:08.767Z,140.13
2018-12-01T23:44:40.109Z,115.27
2018-12-01T23:47:11.796Z,128.17
2018-12-01T23:49:43.187Z,131.90
2018-12-01T23:52:14.442Z,136.10
2018-12-01T23:54:45.720Z,129.27
2018-12-01T23:57:17.074Z,126.53
2018-12-01T23:59:48.580Z,124.70
